Metar Aviation Weather Data LFTW

12°C Temp
12°C Dewpoint
% Humidity
Temperature
13 KM/H
8 MPH
7 KTS
140°
South East

Wind Speed
Overcast
Conditions
Pressure 1024.92 (hPa) - 30.27 (in)
Visibility 2.5 (mi) - 4.0 (km)

Current Conditions
LFTW
Metar :LFTW 170830Z AUTO 14007KT 110V170 4000 DZ BR OVC003 12/12 Q1025 TEMPO RA
Mon 17th February 09:30 am

  Metar Aviation API Data Provided by https://www.checkwx.com/ PHP scripts by weather34.com ©2020